Time;durP1;ratioP1;P1;durP2;ratioP2;P2;SDS_P1;SDS_P2;PMS_P1;PMS_P2;Temp;Humidity;BMP_temperature;BMP_pressure;BME280_temperature;BME280_humidity;BME280_pressure;Samples;Min_cycle;Max_cycle;Signal;HPM_P1;HPM_P2
2022/01/29 00:01:38;;;;;;;196.43;155.55;;;19.90;43.70;;;;;;4743152;55;21484;-44
2022/01/29 00:06:38;;;;;;;186.18;148.25;;;19.80;43.60;;;;;;4736594;59;21018;-39
2022/01/29 00:11:41;;;;;;;196.82;157.48;;;19.90;43.70;;;;;;4738555;55;21074;-42
2022/01/29 00:16:41;;;;;;;193.23;155.48;;;19.80;43.60;;;;;;4746439;55;21094;-40
2022/01/29 00:21:42;;;;;;;194.43;154.43;;;19.80;43.60;;;;;;4758573;55;20990;-45
2022/01/29 00:26:43;;;;;;;184.55;145.82;;;19.80;43.60;;;;;;4754974;55;21575;-36
2022/01/29 00:31:44;;;;;;;189.30;149.93;;;19.80;43.50;;;;;;4738325;55;21049;-40
2022/01/29 00:36:45;;;;;;;186.50;150.62;;;19.80;43.60;;;;;;4737965;55;21476;-46
2022/01/29 00:41:46;;;;;;;197.40;156.87;;;19.80;43.50;;;;;;4759377;55;21029;-40
2022/01/29 00:46:47;;;;;;;189.10;145.77;;;19.80;43.50;;;;;;4749876;55;21002;-38
2022/01/29 00:51:48;;;;;;;192.05;152.48;;;19.80;43.50;;;;;;4742457;55;21086;-48
2022/01/29 00:56:49;;;;;;;184.60;146.55;;;19.80;43.50;;;;;;4738543;59;21448;-40
2022/01/29 01:01:50;;;;;;;195.15;154.90;;;19.80;43.50;;;;;;4752920;55;21114;-43
2022/01/29 01:06:50;;;;;;;193.52;148.70;;;19.80;43.40;;;;;;4793291;55;21415;-42
2022/01/29 01:11:51;;;;;;;184.77;141.50;;;19.80;43.40;;;;;;4823667;55;21018;-41
2022/01/29 01:16:52;;;;;;;192.55;152.65;;;19.80;43.40;;;;;;4743207;55;21094;-41
2022/01/29 01:21:54;;;;;;;195.55;155.12;;;19.80;43.40;;;;;;4738788;55;21362;-39
2022/01/29 01:26:55;;;;;;;195.38;151.85;;;19.80;43.30;;;;;;4753546;55;21459;-46
2022/01/29 01:31:56;;;;;;;196.77;155.37;;;19.80;43.30;;;;;;4753523;55;21037;-37
2022/01/29 01:37:03;;;;;;;193.57;147.75;;;19.70;42.80;;;;;;4737812;59;21621;-41
2022/01/29 01:42:06;;;;;;;192.77;147.60;;;19.70;43.10;;;;;;4749345;55;21507;-40
2022/01/29 01:47:07;;;;;;;198.20;152.87;;;19.70;43.30;;;;;;4743858;55;21512;-38
2022/01/29 01:52:10;;;;;;;196.07;148.70;;;19.70;43.20;;;;;;4748112;55;21065;-37
2022/01/29 01:57:12;;;;;;;182.05;141.60;;;19.70;43.60;;;;;;4758277;55;21002;-44
2022/01/29 02:02:12;;;;;;;190.50;146.13;;;19.70;43.10;;;;;;4755563;55;21084;-33
2022/01/29 02:07:14;;;;;;;195.30;152.38;;;19.70;43.20;;;;;;4740018;55;21558;-42
2022/01/29 02:12:15;;;;;;;193.25;148.52;;;19.70;43.10;;;;;;4789020;55;21077;-43
2022/01/29 02:17:16;;;;;;;187.32;145.65;;;19.70;43.10;;;;;;4737608;55;21436;-42
2022/01/29 02:22:17;;;;;;;189.27;146.13;;;19.70;43.00;;;;;;4747271;55;21472;-48
2022/01/29 02:27:18;;;;;;;186.20;144.62;;;19.70;43.00;;;;;;4740915;55;21026;-45
2022/01/29 02:32:19;;;;;;;185.27;142.27;;;19.70;43.10;;;;;;4802592;55;21099;-45
2022/01/29 02:37:19;;;;;;;178.55;137.52;;;19.70;43.00;;;;;;4742224;55;21050;-40
2022/01/29 02:42:20;;;;;;;176.63;139.20;;;19.70;43.00;;;;;;4740921;55;21026;-38
2022/01/29 02:47:30;;;;;;;182.90;140.48;;;19.60;43.00;;;;;;4737426;59;21006;-38
2022/01/29 02:52:31;;;;;;;180.85;139.85;;;19.60;42.80;;;;;;4781314;55;21971;-35
2022/01/29 02:57:32;;;;;;;174.55;135.07;;;19.60;42.90;;;;;;4825479;55;21006;-38
2022/01/29 03:02:33;;;;;;;177.20;137.88;;;19.60;42.80;;;;;;4744367;55;20986;-35
2022/01/29 03:07:34;;;;;;;164.75;126.22;;;19.60;43.50;;;;;;4761205;55;21552;-46
2022/01/29 03:12:37;;;;;;;172.10;132.10;;;19.60;42.80;;;;;;4778022;55;21034;-44
2022/01/29 03:17:38;;;;;;;169.95;131.82;;;19.60;42.70;;;;;;4780461;55;21575;-38
2022/01/29 03:22:39;;;;;;;165.73;128.90;;;19.60;42.70;;;;;;4759028;55;21049;-46
2022/01/29 03:27:40;;;;;;;163.27;129.27;;;19.60;42.80;;;;;;4769064;55;21493;-36
2022/01/29 03:32:41;;;;;;;167.57;130.27;;;19.60;42.70;;;;;;4737764;59;21014;-35
2022/01/29 03:37:42;;;;;;;163.87;128.50;;;19.60;42.60;;;;;;4789763;55;21018;-46
2022/01/29 03:42:47;;;;;;;147.43;114.00;;;19.60;42.60;;;;;;4756998;55;21010;-44
2022/01/29 03:47:48;;;;;;;165.10;128.70;;;19.60;42.60;;;;;;4748669;55;22328;-40
2022/01/29 03:52:49;;;;;;;147.45;115.43;;;19.60;42.60;;;;;;4775849;55;21018;-41
2022/01/29 03:57:50;;;;;;;157.20;122.32;;;19.60;42.50;;;;;;4746055;55;21022;-37
2022/01/29 04:02:51;;;;;;;153.43;117.95;;;19.50;42.50;;;;;;4738091;55;21125;-43
2022/01/29 04:07:52;;;;;;;148.48;119.55;;;19.60;42.50;;;;;;4806956;55;21002;-43
2022/01/29 04:12:53;;;;;;;150.30;115.55;;;19.50;42.40;;;;;;4761753;55;21034;-39
2022/01/29 04:17:54;;;;;;;148.07;118.13;;;19.50;42.40;;;;;;4748649;55;21049;-45
2022/01/29 04:22:56;;;;;;;142.98;112.07;;;19.50;42.30;;;;;;4738705;55;21078;-43
2022/01/29 04:27:57;;;;;;;143.60;113.35;;;19.50;42.40;;;;;;4760368;55;21058;-43
2022/01/29 04:33:14;;;;;;;145.38;114.60;;;19.50;42.30;;;;;;4752354;55;21014;-47
2022/01/29 04:38:15;;;;;;;;;;;19.50;42.30;;;;;;4756705;55;21595;-45
2022/01/29 04:43:16;;;;;;;138.73;110.60;;;19.50;42.30;;;;;;4742487;55;20112;-42
2022/01/29 04:48:17;;;;;;;138.20;111.25;;;19.50;42.30;;;;;;4737759;59;21034;-44
2022/01/29 04:53:19;;;;;;;135.18;108.07;;;19.50;42.40;;;;;;4738029;59;20991;-37
2022/01/29 04:58:20;;;;;;;131.18;102.87;;;19.50;42.40;;;;;;4761102;55;21014;-37
2022/01/29 05:03:20;;;;;;;131.30;103.78;;;19.50;42.40;;;;;;4753598;55;21571;-40
2022/01/29 05:08:23;;;;;;;133.75;104.70;;;19.50;42.40;;;;;;4738817;59;21535;-38
2022/01/29 05:13:27;;;;;;;128.70;104.00;;;19.50;42.50;;;;;;4802450;55;21034;-36
2022/01/29 05:29:07;;;;;;;123.38;97.82;;;19.50;42.50;;;;;;4737850;55;21583;-46
2022/01/29 05:34:08;;;;;;;119.68;96.10;;;19.50;42.50;;;;;;4796920;55;21034;-42
2022/01/29 05:39:09;;;;;;;124.97;97.70;;;19.50;42.50;;;;;;4762688;55;21004;-35
2022/01/29 05:44:10;;;;;;;116.72;93.78;;;19.50;42.60;;;;;;4738098;59;21607;-38
2022/01/29 05:49:11;;;;;;;118.40;94.55;;;19.50;42.60;;;;;;4738584;59;21496;-40
2022/01/29 05:54:11;;;;;;;114.57;92.57;;;19.50;42.60;;;;;;4737700;59;21001;-36
2022/01/29 05:59:12;;;;;;;118.00;93.55;;;19.50;42.60;;;;;;4757151;55;20997;-43
2022/01/29 06:04:13;;;;;;;109.90;86.70;;;19.50;42.60;;;;;;4749782;55;21476;-45
2022/01/29 06:09:14;;;;;;;108.68;86.47;;;19.50;42.60;;;;;;4763442;55;21085;-41
2022/01/29 06:14:15;;;;;;;109.97;87.30;;;19.40;42.50;;;;;;4743662;55;21588;-40
2022/01/29 06:19:16;;;;;;;107.12;85.53;;;19.40;42.60;;;;;;4744001;55;21101;-45
2022/01/29 06:24:16;;;;;;;100.12;79.00;;;19.40;42.60;;;;;;4742621;55;21026;-35
2022/01/29 06:29:17;;;;;;;104.78;83.60;;;19.40;42.60;;;;;;4771488;55;20997;-35
2022/01/29 06:34:18;;;;;;;103.07;82.97;;;19.40;42.60;;;;;;4746338;55;21022;-40
2022/01/29 06:39:19;;;;;;;104.75;83.90;;;19.40;42.60;;;;;;4738084;59;21061;-41
2022/01/29 06:44:20;;;;;;;103.22;81.60;;;19.40;42.50;;;;;;4761219;55;21239;-43
2022/01/29 06:49:21;;;;;;;92.32;72.87;;;19.40;42.50;;;;;;4737511;59;21061;-40
2022/01/29 06:54:21;;;;;;;93.90;76.22;;;19.40;42.60;;;;;;4737749;59;21471;-40
2022/01/29 06:59:22;;;;;;;98.40;78.20;;;19.40;42.50;;;;;;4744852;55;21069;-35
2022/01/29 07:04:23;;;;;;;94.05;73.30;;;19.40;42.50;;;;;;4744996;55;21060;-35
2022/01/29 07:09:24;;;;;;;89.62;72.07;;;19.40;42.40;;;;;;4738038;56;21594;-42
2022/01/29 07:14:25;;;;;;;89.65;73.10;;;19.40;42.40;;;;;;4746680;55;21042;-37
2022/01/29 07:19:26;;;;;;;93.70;76.07;;;19.40;42.40;;;;;;4752416;55;21504;-38
2022/01/29 07:24:27;;;;;;;92.45;74.00;;;19.40;42.40;;;;;;4737723;55;21053;-46
2022/01/29 07:29:28;;;;;;;91.25;71.93;;;19.40;42.40;;;;;;4750442;55;21006;-37
2022/01/29 07:34:29;;;;;;;89.80;70.15;;;19.40;42.40;;;;;;4743885;55;21013;-38
2022/01/29 07:39:30;;;;;;;87.07;71.00;;;19.40;42.30;;;;;;4746461;55;21022;-47
2022/01/29 07:44:31;;;;;;;89.07;72.07;;;19.40;42.30;;;;;;4738115;55;21055;-35
2022/01/29 07:49:32;;;;;;;89.57;73.45;;;19.40;42.40;;;;;;4747033;55;21484;-49
2022/01/29 07:54:33;;;;;;;87.60;70.15;;;19.40;42.40;;;;;;4797901;55;21140;-43
2022/01/29 07:59:34;;;;;;;84.87;70.70;;;19.30;42.20;;;;;;4749986;55;21022;-36
2022/01/29 08:04:35;;;;;;;89.28;72.70;;;19.40;42.20;;;;;;4747419;55;21130;-39
2022/01/29 08:09:35;;;;;;;86.95;69.37;;;19.30;42.20;;;;;;4738296;55;21507;-35
2022/01/29 08:14:36;;;;;;;85.50;68.47;;;19.30;42.10;;;;;;4737811;55;21105;-37
2022/01/29 08:19:37;;;;;;;85.55;69.53;;;19.30;42.20;;;;;;4777072;55;21504;-34
2022/01/29 08:24:39;;;;;;;88.62;71.15;;;19.30;42.10;;;;;;4745768;55;21046;-39
2022/01/29 08:29:40;;;;;;;82.57;67.10;;;19.30;42.10;;;;;;4741253;55;21623;-42
2022/01/29 08:34:43;;;;;;;86.53;70.80;;;19.30;42.10;;;;;;4737587;59;21121;-37
2022/01/29 08:39:45;;;;;;;81.60;67.93;;;19.30;42.10;;;;;;4749480;55;21294;-47
2022/01/29 08:44:46;;;;;;;82.78;66.32;;;19.30;42.10;;;;;;4752075;55;21508;-38
2022/01/29 08:49:47;;;;;;;85.65;68.15;;;19.30;42.10;;;;;;4743884;55;21046;-36
2022/01/29 08:54:48;;;;;;;87.55;72.15;;;19.30;41.70;;;;;;4749386;55;21045;-39
2022/01/29 08:59:49;;;;;;;90.07;73.75;;;19.30;42.20;;;;;;4737918;55;20994;-47
2022/01/29 09:04:52;;;;;;;87.10;70.75;;;19.30;42.10;;;;;;4740836;55;21038;-41
2022/01/29 09:09:53;;;;;;;90.28;74.20;;;19.30;42.10;;;;;;4773833;55;21527;-38
2022/01/29 09:14:54;;;;;;;92.28;73.35;;;19.30;42.10;;;;;;4746231;55;21914;-41
2022/01/29 09:19:55;;;;;;;88.28;72.25;;;19.30;42.10;;;;;;4743991;55;21009;-39
2022/01/29 09:24:56;;;;;;;91.07;75.03;;;19.30;42.10;;;;;;4737146;59;21547;-42
2022/01/29 09:29:57;;;;;;;92.43;74.87;;;19.30;42.10;;;;;;4740082;55;21045;-39
2022/01/29 09:34:58;;;;;;;94.78;75.47;;;19.30;42.00;;;;;;4746595;55;21017;-35
2022/01/29 09:39:59;;;;;;;95.68;77.22;;;19.30;42.70;;;;;;4738063;59;21544;-40
2022/01/29 09:45:00;;;;;;;99.78;79.65;;;19.30;42.10;;;;;;4750493;55;21499;-52
2022/01/29 09:50:01;;;;;;;103.93;84.10;;;19.30;42.00;;;;;;4737171;59;21155;-37
2022/01/29 09:55:03;;;;;;;102.12;81.95;;;19.30;42.00;;;;;;4752210;55;21102;-47
2022/01/29 10:00:06;;;;;;;108.10;84.62;;;19.30;42.10;;;;;;4737919;55;21885;-45
2022/01/29 10:05:11;;;;;;;108.72;86.80;;;19.30;42.00;;;;;;4750112;55;21089;-35
2022/01/29 10:10:21;;;;;;;109.28;85.45;;;19.30;42.10;;;;;;4765710;55;21471;-37
2022/01/29 10:15:22;;;;;;;113.22;91.95;;;19.30;42.10;;;;;;4737684;59;21045;-38
2022/01/29 10:20:26;;;;;;;116.22;93.45;;;19.30;42.00;;;;;;4739066;55;21081;-37
2022/01/29 10:25:30;;;;;;;117.95;92.95;;;19.30;42.10;;;;;;4813866;55;21026;-43
2022/01/29 10:30:31;;;;;;;114.62;91.25;;;19.30;42.00;;;;;;4778610;55;21945;-36
2022/01/29 10:35:52;;;;;;;118.53;96.47;;;19.30;42.00;;;;;;4754386;55;22274;-41
2022/01/29 10:41:30;;;;;;;124.95;98.68;;;19.30;42.10;;;;;;4759691;55;20994;-41
2022/01/29 10:46:32;;;;;;;117.28;95.20;;;19.30;42.10;;;;;;4764518;55;22182;-38
2022/01/29 10:51:34;;;;;;;124.40;98.85;;;19.30;42.10;;;;;;4775098;55;21111;-35
2022/01/29 10:57:01;;;;;;;123.68;97.85;;;19.30;42.00;;;;;;4752034;55;21113;-46
2022/01/29 11:02:07;;;;;;;118.53;96.03;;;19.30;42.00;;;;;;4811015;55;21062;-40
2022/01/29 11:07:19;;;;;;;122.70;97.70;;;19.30;42.00;;;;;;4755011;55;22142;-38
2022/01/29 11:12:26;;;;;;;121.35;98.40;;;19.30;42.00;;;;;;4740661;55;21192;-35
2022/01/29 11:17:28;;;;;;;122.22;98.55;;;19.30;42.00;;;;;;4774226;55;21014;-38
2022/01/29 11:22:35;;;;;;;126.60;102.15;;;19.30;42.00;;;;;;4773452;55;21500;-38
2022/01/29 11:27:37;;;;;;;124.55;99.10;;;19.30;42.60;;;;;;4769165;55;21500;-39
2022/01/29 11:32:53;;;;;;;122.35;98.60;;;19.30;42.00;;;;;;4741768;55;21066;-36
2022/01/29 11:38:12;;;;;;;128.38;102.85;;;19.30;41.90;;;;;;4737885;59;21058;-47
2022/01/29 11:43:24;;;;;;;127.22;103.95;;;19.30;42.00;;;;;;4763962;55;21029;-34
2022/01/29 11:48:51;;;;;;;124.05;102.07;;;19.30;42.00;;;;;;4741533;55;21013;-35
2022/01/29 11:53:56;;;;;;;126.30;103.68;;;19.40;42.10;;;;;;4763431;55;21518;-42
2022/01/29 11:59:34;;;;;;;132.27;106.37;;;19.40;42.00;;;;;;4746839;55;21171;-38
2022/01/29 12:06:30;;;;;;;130.87;104.68;;;19.40;42.10;;;;;;4751185;55;21567;-38
2022/01/29 12:11:40;;;;;;;137.57;111.53;;;19.30;42.10;;;;;;4755112;55;20997;-36
2022/01/29 12:17:02;;;;;;;132.15;107.97;;;19.30;42.10;;;;;;4736813;59;21492;-35
2022/01/29 12:22:21;;;;;;;135.05;109.47;;;19.30;42.10;;;;;;4740513;55;21456;-39
2022/01/29 12:27:23;;;;;;;140.75;111.62;;;19.30;42.10;;;;;;4788795;55;21014;-36
2022/01/29 12:32:24;;;;;;;139.07;114.20;;;19.30;42.20;;;;;;4738598;59;21512;-38
2022/01/29 12:37:25;;;;;;;135.63;112.28;;;19.30;42.20;;;;;;4767517;55;21034;-36
2022/01/29 12:42:32;;;;;;;137.98;111.70;;;19.30;42.20;;;;;;4740238;55;21002;-44
2022/01/29 12:47:35;;;;;;;135.45;110.75;;;19.30;42.20;;;;;;4737400;59;21540;-42
2022/01/29 12:52:36;;;;;;;139.80;113.18;;;19.40;42.30;;;;;;4833246;55;21066;-40
2022/01/29 12:57:48;;;;;;;140.10;118.13;;;19.30;42.20;;;;;;4738652;55;21543;-49
2022/01/29 13:02:49;;;;;;;144.82;116.20;;;19.30;42.30;;;;;;4771124;55;21057;-41
2022/01/29 13:07:50;;;;;;;143.40;118.95;;;19.30;42.30;;;;;;4736572;59;21062;-36
2022/01/29 13:12:51;;;;;;;139.88;116.97;;;19.30;42.40;;;;;;4743504;55;21033;-42
2022/01/29 13:17:52;;;;;;;141.45;117.37;;;19.30;42.40;;;;;;4768960;55;21030;-39
2022/01/29 13:22:53;;;;;;;143.85;115.03;;;19.30;42.30;;;;;;4742147;55;21001;-40
2022/01/29 13:28:17;;;;;;;143.95;117.47;;;19.30;42.30;;;;;;4778641;55;21025;-46
2022/01/29 13:33:20;;;;;;;147.05;121.60;;;19.30;42.30;;;;;;4792797;55;21567;-36
2022/01/29 13:38:24;;;;;;;151.73;123.47;;;19.30;42.30;;;;;;4747735;55;21491;-40
2022/01/29 13:43:33;;;;;;;148.95;122.00;;;19.30;42.30;;;;;;4751466;55;21543;-36
2022/01/29 13:48:56;;;;;;;156.37;125.45;;;19.30;42.30;;;;;;4776094;55;21121;-38
2022/01/29 13:54:00;;;;;;;156.32;126.57;;;19.40;42.30;;;;;;4754037;55;21062;-40
2022/01/29 13:59:04;;;;;;;150.38;125.70;;;19.30;42.30;;;;;;4767531;55;21030;-43
2022/01/29 14:04:36;;;;;;;155.77;127.87;;;19.30;42.30;;;;;;4740552;55;21006;-44
2022/01/29 14:09:55;;;;;;;154.80;128.48;;;19.30;42.30;;;;;;4768548;55;21022;-37
2022/01/29 14:15:11;;;;;;;160.75;129.98;;;19.30;42.30;;;;;;4768464;55;21622;-36
2022/01/29 14:20:16;;;;;;;158.73;131.20;;;19.30;42.30;;;;;;4739510;55;20997;-43
2022/01/29 14:25:19;;;;;;;157.60;129.70;;;19.30;42.30;;;;;;4745013;55;21468;-37
2022/01/29 14:30:21;;;;;;;164.77;134.45;;;19.30;42.30;;;;;;4755671;55;21113;-42
2022/01/29 14:35:22;;;;;;;159.55;130.00;;;19.30;42.50;;;;;;4737544;55;21563;-43
2022/01/29 14:40:23;;;;;;;159.73;133.43;;;19.30;42.30;;;;;;4757432;55;21034;-38
2022/01/29 14:45:27;;;;;;;167.98;136.75;;;19.30;43.00;;;;;;4746905;55;21030;-38
2022/01/29 14:50:29;;;;;;;159.27;134.37;;;19.30;42.30;;;;;;4759793;55;21452;-38
2022/01/29 14:55:30;;;;;;;157.80;133.12;;;19.40;42.30;;;;;;4767626;55;21500;-38
2022/01/29 15:00:32;;;;;;;160.73;135.90;;;19.40;42.40;;;;;;4791980;55;21009;-36
2022/01/29 15:05:33;;;;;;;164.30;134.77;;;19.30;42.30;;;;;;4770790;55;21058;-41
2022/01/29 15:10:35;;;;;;;160.15;134.80;;;19.30;42.30;;;;;;4748538;55;21041;-38
2022/01/29 15:15:37;;;;;;;162.32;133.30;;;19.30;42.30;;;;;;4744928;55;21608;-35
2022/01/29 15:20:38;;;;;;;161.05;134.27;;;19.30;42.30;;;;;;4754486;55;20994;-38
2022/01/29 15:25:40;;;;;;;158.48;131.95;;;19.30;42.30;;;;;;4784140;55;21014;-39
2022/01/29 15:30:43;;;;;;;160.10;131.90;;;19.30;42.30;;;;;;4781980;55;21503;-42
2022/01/29 15:35:44;;;;;;;160.15;134.65;;;19.30;42.30;;;;;;4750684;55;21531;-42
2022/01/29 15:40:51;;;;;;;161.45;133.52;;;19.40;42.30;;;;;;4737935;59;20994;-36
2022/01/29 15:45:53;;;;;;;158.32;131.87;;;19.30;42.20;;;;;;4762352;55;21045;-38
2022/01/29 15:50:55;;;;;;;155.40;130.68;;;19.40;42.90;;;;;;4750736;55;21499;-38
2022/01/29 15:55:56;;;;;;;162.30;132.15;;;19.30;42.20;;;;;;4737926;59;21121;-47
2022/01/29 16:00:59;;;;;;;153.32;132.18;;;19.40;42.30;;;;;;4737983;59;21065;-37
2022/01/29 16:06:00;;;;;;;159.18;131.12;;;19.30;42.30;;;;;;4777486;55;21100;-44
2022/01/29 16:11:01;;;;;;;155.85;129.45;;;19.40;42.80;;;;;;4752290;55;21010;-39
2022/01/29 16:16:02;;;;;;;160.18;131.23;;;19.30;42.10;;;;;;4765622;55;21129;-38
2022/01/29 16:21:04;;;;;;;157.40;132.05;;;19.30;42.10;;;;;;4762355;55;21129;-39
2022/01/29 16:26:06;;;;;;;154.63;128.55;;;19.30;42.10;;;;;;4736992;59;21105;-42
2022/01/29 16:31:07;;;;;;;156.82;132.32;;;19.30;42.10;;;;;;4758862;55;21038;-44
2022/01/29 16:36:08;;;;;;;153.75;130.30;;;19.30;42.10;;;;;;4757426;55;21479;-37
2022/01/29 16:41:12;;;;;;;157.00;131.27;;;19.30;42.10;;;;;;4737570;57;21018;-49
2022/01/29 16:46:13;;;;;;;149.30;124.22;;;19.30;42.00;;;;;;4762051;55;21090;-40
2022/01/29 16:51:14;;;;;;;154.32;128.70;;;19.30;42.10;;;;;;4750100;55;21046;-40
2022/01/29 16:56:15;;;;;;;156.18;128.48;;;19.30;42.10;;;;;;4744527;55;21069;-40
2022/01/29 17:01:17;;;;;;;155.23;129.85;;;19.30;42.00;;;;;;4754007;55;21853;-38
2022/01/29 17:06:18;;;;;;;154.38;128.45;;;19.30;42.00;;;;;;4758640;55;21564;-34
2022/01/29 17:11:20;;;;;;;153.70;125.80;;;19.30;42.00;;;;;;4768746;55;21057;-45
2022/01/29 17:16:23;;;;;;;152.02;127.82;;;19.30;41.90;;;;;;4747362;55;21070;-38
2022/01/29 17:21:24;;;;;;;160.93;132.85;;;19.30;41.90;;;;;;4744161;55;21080;-38
2022/01/29 17:26:26;;;;;;;157.95;132.15;;;19.30;41.90;;;;;;4738202;59;21507;-35
2022/01/29 17:31:27;;;;;;;159.85;132.75;;;19.30;41.90;;;;;;4758425;55;21488;-38
2022/01/29 17:36:27;;;;;;;158.23;129.63;;;19.30;41.90;;;;;;4771905;55;21028;-44
2022/01/29 17:41:28;;;;;;;158.68;130.37;;;19.30;41.90;;;;;;4788881;55;21105;-40
2022/01/29 17:46:29;;;;;;;156.12;128.90;;;19.30;42.10;;;;;;4755183;55;21603;-42
2022/01/29 17:51:30;;;;;;;157.90;131.60;;;19.30;42.20;;;;;;4738543;59;21551;-35
2022/01/29 17:56:31;;;;;;;156.73;129.98;;;19.30;41.80;;;;;;4768437;55;20994;-42
2022/01/29 18:01:32;;;;;;;156.35;131.20;;;19.30;41.80;;;;;;4747023;55;21009;-35
2022/01/29 18:06:33;;;;;;;160.12;133.73;;;19.30;41.90;;;;;;4737757;59;21078;-42
2022/01/29 18:11:34;;;;;;;152.10;126.87;;;19.30;41.80;;;;;;4737879;56;21643;-37
2022/01/29 18:16:40;;;;;;;159.30;130.77;;;19.30;41.80;;;;;;4737816;55;21030;-41
2022/01/29 18:21:42;;;;;;;155.18;129.10;;;19.30;41.80;;;;;;4738277;59;21562;-43
2022/01/29 18:26:43;;;;;;;158.43;129.87;;;19.30;41.80;;;;;;4743434;55;21025;-46
2022/01/29 18:31:44;;;;;;;159.57;128.98;;;19.30;41.80;;;;;;4761334;55;20990;-39
2022/01/29 18:36:45;;;;;;;159.40;131.95;;;19.30;41.70;;;;;;4759360;55;21010;-39
2022/01/29 18:41:46;;;;;;;155.75;126.25;;;19.30;41.70;;;;;;4776364;55;21043;-38
2022/01/29 18:46:47;;;;;;;160.25;132.07;;;19.30;41.70;;;;;;4776797;55;21009;-39
2022/01/29 18:51:48;;;;;;;156.48;131.98;;;19.30;41.70;;;;;;4763327;55;21442;-41
2022/01/29 18:56:48;;;;;;;159.00;132.35;;;19.30;41.70;;;;;;4764023;55;21013;-50
2022/01/29 19:01:50;;;;;;;152.57;129.32;;;19.30;41.60;;;;;;4738183;59;21013;-35
2022/01/29 19:06:51;;;;;;;154.68;127.30;;;19.30;41.70;;;;;;4737726;55;21077;-38
2022/01/29 19:11:55;;;;;;;154.23;127.85;;;19.30;41.70;;;;;;4738984;55;21148;-37
2022/01/29 19:16:59;;;;;;;147.82;124.15;;;19.30;41.50;;;;;;4740539;55;21018;-41
2022/01/29 19:22:00;;;;;;;163.52;131.70;;;19.30;41.60;;;;;;4750966;55;22155;-40
2022/01/29 19:27:01;;;;;;;160.82;129.43;;;19.30;41.60;;;;;;4752241;55;21089;-41
2022/01/29 19:32:03;;;;;;;154.52;129.38;;;19.30;42.20;;;;;;4754967;55;22221;-38
2022/01/29 19:37:04;;;;;;;153.12;124.45;;;19.30;41.50;;;;;;4758338;55;21604;-41
2022/01/29 19:42:06;;;;;;;159.75;133.12;;;19.30;41.40;;;;;;4757608;55;21093;-36
2022/01/29 19:47:07;;;;;;;157.05;130.73;;;19.30;41.40;;;;;;4794488;55;21037;-45
2022/01/29 19:52:12;;;;;;;159.35;130.50;;;19.30;41.40;;;;;;4753413;55;21511;-40
2022/01/29 19:57:13;;;;;;;158.00;129.12;;;19.30;41.40;;;;;;4766403;55;20998;-48
2022/01/29 20:02:14;;;;;;;150.65;129.02;;;19.30;41.40;;;;;;4737811;59;21057;-39
2022/01/29 20:07:16;;;;;;;149.65;123.05;;;19.30;41.30;;;;;;4737029;59;21503;-37
2022/01/29 20:12:17;;;;;;;159.95;132.40;;;19.20;41.20;;;;;;4737181;59;21030;-37
2022/01/29 20:17:17;;;;;;;160.82;129.65;;;19.20;41.30;;;;;;4796021;55;21464;-41
2022/01/29 20:22:18;;;;;;;153.05;124.57;;;19.20;41.20;;;;;;4749558;55;21538;-34
2022/01/29 20:27:19;;;;;;;158.05;129.07;;;19.20;41.20;;;;;;4750404;55;21084;-37
2022/01/29 20:32:20;;;;;;;160.02;130.00;;;19.20;41.20;;;;;;4750328;55;21026;-36
2022/01/29 20:37:21;;;;;;;157.15;130.35;;;19.20;41.20;;;;;;4776512;55;21029;-35
2022/01/29 20:42:22;;;;;;;156.27;126.75;;;19.20;41.10;;;;;;4753875;55;21018;-41
2022/01/29 20:47:23;;;;;;;161.73;135.00;;;19.20;41.10;;;;;;4752950;55;21508;-40
2022/01/29 20:52:24;;;;;;;158.73;129.73;;;19.20;41.10;;;;;;4737504;55;21061;-37
2022/01/29 20:57:26;;;;;;;165.90;134.57;;;19.20;41.10;;;;;;4776894;55;21021;-38
2022/01/29 21:02:27;;;;;;;163.60;133.87;;;19.20;41.10;;;;;;4757466;55;21492;-41
2022/01/29 21:07:28;;;;;;;166.37;134.87;;;19.20;41.00;;;;;;4760887;55;21571;-35
2022/01/29 21:12:29;;;;;;;167.02;134.07;;;19.30;41.10;;;;;;4771019;55;21140;-39
2022/01/29 21:17:31;;;;;;;165.23;134.00;;;19.20;41.00;;;;;;4737651;59;21021;-41
2022/01/29 21:22:32;;;;;;;162.98;133.18;;;19.20;41.00;;;;;;4742942;55;21051;-36
2022/01/29 21:27:33;;;;;;;165.60;135.77;;;19.20;41.00;;;;;;4750034;55;21061;-38
2022/01/29 21:32:34;;;;;;;165.37;134.32;;;19.20;41.00;;;;;;4750914;55;21029;-35
2022/01/29 21:37:35;;;;;;;166.93;136.35;;;19.20;41.00;;;;;;4761902;55;21011;-34
2022/01/29 21:42:36;;;;;;;166.93;134.93;;;19.20;40.90;;;;;;4738040;59;21022;-40
2022/01/29 21:47:37;;;;;;;166.68;136.18;;;19.20;41.50;;;;;;4755640;55;21042;-40
2022/01/29 21:52:38;;;;;;;171.82;137.62;;;19.20;40.90;;;;;;4738744;59;21754;-39
2022/01/29 21:57:38;;;;;;;167.07;134.40;;;19.20;40.80;;;;;;4755067;55;21121;-48
2022/01/29 22:02:43;;;;;;;160.77;129.10;;;19.20;40.80;;;;;;4748972;55;21014;-37
2022/01/29 22:07:44;;;;;;;164.57;132.68;;;19.20;40.90;;;;;;4771783;55;21002;-42
2022/01/29 22:12:45;;;;;;;166.43;133.52;;;19.20;40.80;;;;;;4746836;55;21487;-35
2022/01/29 22:17:46;;;;;;;164.88;133.95;;;19.20;40.80;;;;;;4751814;55;20986;-39
2022/01/29 22:22:47;;;;;;;171.30;137.12;;;19.20;40.70;;;;;;4738012;55;21006;-36
2022/01/29 22:27:48;;;;;;;168.20;136.62;;;19.20;40.70;;;;;;4737334;59;21077;-38
2022/01/29 22:32:49;;;;;;;164.93;132.30;;;19.20;40.70;;;;;;4765957;55;21002;-38
2022/01/29 22:37:50;;;;;;;167.98;133.25;;;19.20;40.60;;;;;;4766697;55;21583;-36
2022/01/29 22:42:51;;;;;;;166.70;128.32;;;19.20;40.60;;;;;;4755695;55;21009;-41
2022/01/29 22:47:52;;;;;;;162.27;131.32;;;19.20;40.60;;;;;;4769460;55;21010;-42
2022/01/29 22:52:53;;;;;;;170.68;136.65;;;19.20;40.50;;;;;;4758920;55;21077;-34
2022/01/29 22:57:54;;;;;;;168.35;134.05;;;19.10;40.50;;;;;;4754980;55;21512;-38
2022/01/29 23:02:55;;;;;;;165.15;134.32;;;19.10;40.50;;;;;;4738127;59;21100;-42
2022/01/29 23:07:55;;;;;;;170.40;136.37;;;19.10;40.50;;;;;;4743179;55;22310;-35
2022/01/29 23:13:52;;;;;;;167.02;135.30;;;19.10;40.40;;;;;;4760791;55;21065;-41
2022/01/29 23:18:56;;;;;;;168.98;133.70;;;19.10;40.40;;;;;;4789255;55;21116;-45
2022/01/29 23:24:05;;;;;;;166.50;134.23;;;19.10;41.10;;;;;;4785581;55;21049;-37
2022/01/29 23:29:09;;;;;;;167.32;134.57;;;19.10;41.00;;;;;;4767984;55;21014;-38
2022/01/29 23:34:36;;;;;;;171.02;134.50;;;19.10;40.40;;;;;;4761267;55;21487;-37
2022/01/29 23:39:43;;;;;;;170.83;137.37;;;19.10;40.30;;;;;;4737897;59;21465;-37
2022/01/29 23:45:51;;;;;;;171.65;135.70;;;19.10;40.30;;;;;;4747414;55;21520;-37
2022/01/29 23:50:54;;;;;;;167.55;135.10;;;19.10;40.30;;;;;;4758446;55;22194;-38
2022/01/29 23:55:55;;;;;;;167.90;136.02;;;19.10;40.20;;;;;;4764772;55;21488;-50
